Time;durP1;ratioP1;P1;durP2;ratioP2;P2;SDS_P1;SDS_P2;PMS_P1;PMS_P2;Temp;Humidity;BMP_temperature;BMP_pressure;BME280_temperature;BME280_humidity;BME280_pressure;Samples;Min_cycle;Max_cycle;Signal;HPM_P1;HPM_P2
2023/06/05 00:02:17;;;;;;;1.55;1.45;;;;;;;;;;5081945;28;20356;-60
2023/06/05 00:04:44;;;;;;;3.38;1.60;;;;;;;;;;5099025;28;20227;-60
2023/06/05 00:07:12;;;;;;;1.95;1.30;;;;;;;;;;5099241;28;20204;-60
2023/06/05 00:09:39;;;;;;;1.58;1.48;;;;;;;;;;5092609;28;20293;-60
2023/06/05 00:12:07;;;;;;;2.75;1.38;;;;;;;;;;5097120;28;20253;-60
2023/06/05 00:14:35;;;;;;;1.63;1.33;;;;;;;;;;5098481;28;20264;-60
2023/06/05 00:17:07;;;;;;;1.95;1.75;;;;;;;;;;5098823;28;20204;-60
2023/06/05 00:19:34;;;;;;;1.52;1.42;;;;;;;;;;5098805;28;20583;-60
2023/06/05 00:22:02;;;;;;;1.83;1.73;;;;;;;;;;5098820;28;20211;-60
2023/06/05 00:24:29;;;;;;;1.70;1.60;;;;;;;;;;5090413;28;20503;-60
2023/06/05 00:26:56;;;;;;;1.67;1.58;;;;;;;;;;5098825;28;20211;-60
2023/06/05 00:29:24;;;;;;;1.67;1.58;;;;;;;;;;5098487;28;20237;-60
2023/06/05 00:31:53;;;;;;;1.90;1.80;;;;;;;;;;5098426;28;20587;-60
2023/06/05 00:34:22;;;;;;;2.22;1.63;;;;;;;;;;5098627;28;20448;-60
2023/06/05 00:36:50;;;;;;;1.73;1.63;;;;;;;;;;5099018;28;20305;-60
2023/06/05 00:39:18;;;;;;;1.60;1.50;;;;;;;;;;5098247;28;20203;-60
2023/06/05 00:41:46;;;;;;;1.98;1.63;;;;;;;;;;5098540;28;20204;-60
2023/06/05 00:44:13;;;;;;;2.50;1.45;;;;;;;;;;5098374;28;20223;-60
2023/06/05 00:46:42;;;;;;;2.50;1.60;;;;;;;;;;5098292;28;20203;-60
2023/06/05 00:49:10;;;;;;;1.92;1.50;;;;;;;;;;5098432;28;20204;-60
2023/06/05 00:51:40;;;;;;;2.60;1.73;;;;;;;;;;5091679;28;20204;-60
2023/06/05 00:54:09;;;;;;;2.08;1.70;;;;;;;;;;5096580;28;20229;-60
2023/06/05 00:56:39;;;;;;;1.90;1.70;;;;;;;;;;5098479;28;20203;-60
2023/06/05 00:59:07;;;;;;;1.60;1.50;;;;;;;;;;5098035;28;20290;-60
2023/06/05 01:01:36;;;;;;;1.92;1.60;;;;;;;;;;5097804;28;20278;-60
2023/06/05 01:04:03;;;;;;;2.05;1.85;;;;;;;;;;5098247;28;20227;-60
2023/06/05 01:06:33;;;;;;;2.65;1.58;;;;;;;;;;5089613;28;20211;-60
2023/06/05 01:09:04;;;;;;;1.67;1.58;;;;;;;;;;5098155;28;20214;-60
2023/06/05 01:11:35;;;;;;;1.73;1.63;;;;;;;;;;5097921;28;20504;-60
2023/06/05 01:14:07;;;;;;;2.20;1.83;;;;;;;;;;5097688;28;20306;-60
2023/06/05 01:16:34;;;;;;;1.70;1.60;;;;;;;;;;5098126;28;20253;-60
2023/06/05 01:19:03;;;;;;;1.60;1.50;;;;;;;;;;5089379;28;20791;-60
2023/06/05 01:21:31;;;;;;;1.63;1.52;;;;;;;;;;5097746;28;20211;-60
2023/06/05 01:24:01;;;;;;;1.40;1.30;;;;;;;;;;5097558;28;20242;-60
2023/06/05 01:26:32;;;;;;;1.67;1.58;;;;;;;;;;5098126;28;20497;-60
2023/06/05 01:29:00;;;;;;;1.65;1.55;;;;;;;;;;5097651;28;20203;-60
2023/06/05 01:31:28;;;;;;;2.10;1.80;;;;;;;;;;5092717;28;20603;-60
2023/06/05 01:34:01;;;;;;;1.65;1.55;;;;;;;;;;5094722;28;20212;-60
2023/06/05 01:36:31;;;;;;;1.60;1.50;;;;;;;;;;5097594;28;20269;-60
2023/06/05 01:39:01;;;;;;;1.67;1.50;;;;;;;;;;5097788;28;20588;-60
2023/06/05 01:41:28;;;;;;;1.58;1.48;;;;;;;;;;5097709;28;20210;-60
2023/06/05 01:43:57;;;;;;;1.75;1.52;;;;;;;;;;5096825;28;20246;-60
2023/06/05 01:46:25;;;;;;;1.67;1.58;;;;;;;;;;5090191;28;20205;-60
2023/06/05 01:48:54;;;;;;;1.60;1.50;;;;;;;;;;5096936;28;20231;-60
2023/06/05 01:51:21;;;;;;;2.33;1.70;;;;;;;;;;5096988;28;20582;-60
2023/06/05 01:53:50;;;;;;;1.88;1.77;;;;;;;;;;5097047;28;20579;-60
2023/06/05 01:56:23;;;;;;;1.80;1.70;;;;;;;;;;5097533;28;20200;-60
2023/06/05 01:58:52;;;;;;;1.98;1.85;;;;;;;;;;5089367;28;20282;-60
2023/06/05 02:01:22;;;;;;;1.73;1.60;;;;;;;;;;5094207;28;20411;-60
2023/06/05 02:03:50;;;;;;;1.55;1.45;;;;;;;;;;5078348;28;20204;-60
2023/06/05 02:06:18;;;;;;;2.38;1.50;;;;;;;;;;5081206;28;20235;-60
2023/06/05 02:08:45;;;;;;;2.10;1.70;;;;;;;;;;5081087;28;20204;-60
2023/06/05 02:11:13;;;;;;;1.70;1.55;;;;;;;;;;5080876;28;20220;-60
2023/06/05 02:13:43;;;;;;;1.60;1.50;;;;;;;;;;5081069;28;20626;-60
2023/06/05 02:16:11;;;;;;;1.90;1.70;;;;;;;;;;5080645;28;20201;-60
2023/06/05 02:18:39;;;;;;;1.85;1.75;;;;;;;;;;5080972;28;20205;-60
2023/06/05 02:21:07;;;;;;;1.75;1.65;;;;;;;;;;5080769;28;20204;-60
2023/06/05 02:23:34;;;;;;;2.85;1.70;;;;;;;;;;5080698;28;20214;-60
2023/06/05 02:26:02;;;;;;;2.05;1.50;;;;;;;;;;5080335;28;20263;-60
2023/06/05 02:28:29;;;;;;;1.80;1.70;;;;;;;;;;5080565;28;20215;-60
2023/06/05 02:30:59;;;;;;;3.13;1.83;;;;;;;;;;5080591;28;20204;-60
2023/06/05 02:33:27;;;;;;;1.80;1.45;;;;;;;;;;5080516;28;20266;-60
2023/06/05 02:35:56;;;;;;;1.73;1.55;;;;;;;;;;5079696;28;20197;-60
2023/06/05 02:38:23;;;;;;;2.13;1.95;;;;;;;;;;5080482;28;20234;-60
2023/06/05 02:40:51;;;;;;;1.60;1.50;;;;;;;;;;5080367;28;20248;-60
2023/06/05 02:43:19;;;;;;;1.60;1.50;;;;;;;;;;5080065;28;20305;-60
2023/06/05 02:45:47;;;;;;;2.22;1.52;;;;;;;;;;5080247;28;20315;-60
2023/06/05 02:48:16;;;;;;;1.60;1.50;;;;;;;;;;5080116;28;20205;-60
2023/06/05 02:50:44;;;;;;;1.77;1.50;;;;;;;;;;5080191;28;20298;-60
2023/06/05 02:53:11;;;;;;;1.67;1.58;;;;;;;;;;5080309;28;20338;-60
2023/06/05 02:55:40;;;;;;;1.75;1.65;;;;;;;;;;5080312;28;20224;-60
2023/06/05 02:58:07;;;;;;;1.98;1.77;;;;;;;;;;5080448;28;20241;-60
2023/06/05 03:00:37;;;;;;;2.03;1.70;;;;;;;;;;5080103;28;20212;-60
2023/06/05 03:03:06;;;;;;;1.73;1.63;;;;;;;;;;5090130;28;20273;-60
2023/06/05 03:05:35;;;;;;;1.50;1.40;;;;;;;;;;5100280;28;20231;-60
2023/06/05 03:08:03;;;;;;;1.50;1.40;;;;;;;;;;5092055;28;20544;-60
2023/06/05 03:10:30;;;;;;;1.70;1.60;;;;;;;;;;5100340;28;20246;-60
2023/06/05 03:12:58;;;;;;;1.80;1.70;;;;;;;;;;5100143;28;20210;-60
2023/06/05 03:15:27;;;;;;;1.73;1.50;;;;;;;;;;5099062;28;20249;-60
2023/06/05 03:17:55;;;;;;;2.90;1.80;;;;;;;;;;5099550;28;20268;-60
2023/06/05 03:20:22;;;;;;;1.80;1.70;;;;;;;;;;5091583;28;20290;-60
2023/06/05 03:22:51;;;;;;;2.13;1.75;;;;;;;;;;5100041;28;20298;-60
2023/06/05 03:25:19;;;;;;;2.58;1.85;;;;;;;;;;5099573;28;20297;-60
2023/06/05 03:27:47;;;;;;;1.90;1.50;;;;;;;;;;5099472;28;20265;-60
2023/06/05 03:30:18;;;;;;;1.50;1.40;;;;;;;;;;5099897;28;20295;-59
2023/06/05 03:32:46;;;;;;;1.60;1.50;;;;;;;;;;5099795;28;20203;-59
2023/06/05 03:35:13;;;;;;;2.20;1.50;;;;;;;;;;5091467;28;20729;-59
2023/06/05 03:37:41;;;;;;;1.73;1.58;;;;;;;;;;5099556;28;20247;-59
2023/06/05 03:40:12;;;;;;;1.50;1.38;;;;;;;;;;5099077;28;20484;-59
2023/06/05 03:42:40;;;;;;;1.52;1.42;;;;;;;;;;5099052;28;20655;-59
2023/06/05 03:45:08;;;;;;;2.13;1.60;;;;;;;;;;5099025;28;20223;-59
2023/06/05 03:47:35;;;;;;;2.67;1.75;;;;;;;;;;5090678;28;20203;-60
2023/06/05 03:50:03;;;;;;;1.85;1.75;;;;;;;;;;5099383;28;20233;-59
2023/06/05 03:52:31;;;;;;;2.65;1.80;;;;;;;;;;5099103;28;20231;-59
2023/06/05 03:55:00;;;;;;;2.25;1.52;;;;;;;;;;5099045;28;20203;-59
2023/06/05 03:57:29;;;;;;;3.28;1.60;;;;;;;;;;5098430;28;20203;-59
2023/06/05 03:59:56;;;;;;;2.47;1.67;;;;;;;;;;5098130;28;20269;-59
2023/06/05 04:02:23;;;;;;;1.80;1.70;;;;;;;;;;5091022;28;20330;-59
2023/06/05 04:04:51;;;;;;;1.92;1.50;;;;;;;;;;5098948;28;20527;-59
2023/06/05 04:07:19;;;;;;;1.85;1.65;;;;;;;;;;5098416;28;20215;-59
2023/06/05 04:09:46;;;;;;;1.80;1.55;;;;;;;;;;5098307;28;20204;-59
2023/06/05 04:12:14;;;;;;;1.60;1.50;;;;;;;;;;5098152;28;20204;-59
2023/06/05 04:14:44;;;;;;;1.90;1.80;;;;;;;;;;5091746;28;20254;-59
2023/06/05 04:17:13;;;;;;;1.92;1.55;;;;;;;;;;5097726;28;20214;-59
2023/06/05 04:19:40;;;;;;;3.30;2.00;;;;;;;;;;5098449;28;20571;-59
2023/06/05 04:22:08;;;;;;;1.55;1.45;;;;;;;;;;5098716;28;20231;-59
2023/06/05 04:24:37;;;;;;;1.98;1.65;;;;;;;;;;5098374;28;20212;-59
2023/06/05 04:27:05;;;;;;;1.83;1.73;;;;;;;;;;5097506;28;20267;-59
2023/06/05 04:29:33;;;;;;;2.45;1.50;;;;;;;;;;5089961;28;20225;-59
2023/06/05 04:32:02;;;;;;;1.60;1.50;;;;;;;;;;5097726;28;20203;-59
2023/06/05 04:34:31;;;;;;;2.28;1.80;;;;;;;;;;5097656;28;20211;-59
2023/06/05 04:36:58;;;;;;;2.47;1.90;;;;;;;;;;5097607;28;20200;-59
2023/06/05 04:39:25;;;;;;;1.70;1.58;;;;;;;;;;5097422;28;20523;-59
2023/06/05 04:41:53;;;;;;;1.92;1.83;;;;;;;;;;5097006;28;20226;-59
2023/06/05 04:44:20;;;;;;;1.83;1.73;;;;;;;;;;5089689;28;20211;-59
2023/06/05 04:46:47;;;;;;;3.10;1.90;;;;;;;;;;5096455;28;20231;-59
2023/06/05 04:49:17;;;;;;;1.98;1.88;;;;;;;;;;5096067;28;20621;-59
2023/06/05 04:51:45;;;;;;;2.10;1.90;;;;;;;;;;5096690;28;20330;-59
2023/06/05 04:54:12;;;;;;;3.38;2.10;;;;;;;;;;5096445;28;20215;-59
2023/06/05 04:56:40;;;;;;;2.17;1.98;;;;;;;;;;5089475;28;20207;-59
2023/06/05 04:59:07;;;;;;;1.98;1.77;;;;;;;;;;5094728;28;20239;-59
2023/06/05 05:01:35;;;;;;;2.53;1.98;;;;;;;;;;5090975;28;20232;-59
2023/06/05 05:04:02;;;;;;;2.20;2.00;;;;;;;;;;5075252;28;20212;-59
2023/06/05 05:06:33;;;;;;;2.00;1.80;;;;;;;;;;5075566;28;20270;-59
2023/06/05 05:09:04;;;;;;;2.10;1.90;;;;;;;;;;5075606;28;20302;-59
2023/06/05 05:11:33;;;;;;;1.80;1.70;;;;;;;;;;5075346;28;20204;-59
2023/06/05 05:14:00;;;;;;;3.40;1.83;;;;;;;;;;5075294;28;20211;-59
2023/06/05 05:16:29;;;;;;;2.30;1.88;;;;;;;;;;5074509;28;20266;-59
2023/06/05 05:18:57;;;;;;;2.25;2.05;;;;;;;;;;5073972;28;20565;-59
2023/06/05 05:21:24;;;;;;;2.63;2.00;;;;;;;;;;5074835;28;20472;-59
2023/06/05 05:23:53;;;;;;;2.15;1.77;;;;;;;;;;5074442;28;20306;-59
2023/06/05 05:26:20;;;;;;;2.83;1.90;;;;;;;;;;5074045;28;20231;-59
2023/06/05 05:28:48;;;;;;;2.33;2.08;;;;;;;;;;5074422;28;20200;-59
2023/06/05 05:31:15;;;;;;;2.03;1.90;;;;;;;;;;5074058;28;20608;-59
2023/06/05 05:33:43;;;;;;;2.50;2.00;;;;;;;;;;5074370;28;20571;-59
2023/06/05 05:36:11;;;;;;;2.15;1.92;;;;;;;;;;5074633;28;20208;-59
2023/06/05 05:38:38;;;;;;;3.03;2.20;;;;;;;;;;5074168;28;20637;-59
2023/06/05 05:41:07;;;;;;;2.50;2.20;;;;;;;;;;5074702;28;20208;-59
2023/06/05 05:43:34;;;;;;;3.85;2.22;;;;;;;;;;5073803;28;20224;-59
2023/06/05 05:46:02;;;;;;;2.47;1.75;;;;;;;;;;5074345;28;20220;-59
2023/06/05 05:48:29;;;;;;;2.47;2.00;;;;;;;;;;5074248;28;20204;-59
2023/06/05 05:50:56;;;;;;;2.58;2.25;;;;;;;;;;5074729;28;20583;-59
2023/06/05 05:53:23;;;;;;;2.20;2.00;;;;;;;;;;5075137;28;20204;-59
2023/06/05 05:55:51;;;;;;;3.92;3.40;;;;;;;;;;5074914;28;20192;-59
2023/06/05 05:58:19;;;;;;;6.22;4.15;;;;;;;;;;5074590;28;20385;-59
2023/06/05 06:00:47;;;;;;;12.85;7.90;;;;;;;;;;5075412;28;20212;-59
2023/06/05 06:03:15;;;;;;;12.88;9.02;;;;;;;;;;5085961;28;20339;-59
2023/06/05 06:05:42;;;;;;;16.63;10.95;;;;;;;;;;5087888;28;20650;-59
2023/06/05 06:08:10;;;;;;;15.65;11.45;;;;;;;;;;5093903;28;20213;-59
2023/06/05 06:10:37;;;;;;;19.67;12.02;;;;;;;;;;5094407;28;20242;-59
2023/06/05 06:13:05;;;;;;;18.33;12.50;;;;;;;;;;5095027;28;20204;-59
2023/06/05 06:15:37;;;;;;;19.25;13.63;;;;;;;;;;5094838;28;20199;-59
2023/06/05 06:18:04;;;;;;;19.17;13.73;;;;;;;;;;5094076;28;20219;-59
2023/06/05 06:20:33;;;;;;;16.95;12.75;;;;;;;;;;5085344;28;20211;-59
2023/06/05 06:23:00;;;;;;;16.60;11.68;;;;;;;;;;5094610;28;20703;-59
2023/06/05 06:25:28;;;;;;;16.02;11.27;;;;;;;;;;5094576;28;20204;-59
2023/06/05 06:27:56;;;;;;;12.70;9.80;;;;;;;;;;5094061;28;20204;-59
2023/06/05 06:30:23;;;;;;;12.38;9.30;;;;;;;;;;5094247;28;20204;-59
2023/06/05 06:32:53;;;;;;;11.50;6.88;;;;;;;;;;5094238;28;20211;-59
2023/06/05 06:35:20;;;;;;;12.15;8.10;;;;;;;;;;5094467;28;20203;-59
2023/06/05 06:37:47;;;;;;;8.25;5.45;;;;;;;;;;5094023;28;20211;-59
2023/06/05 06:40:15;;;;;;;9.38;7.55;;;;;;;;;;5094332;28;20619;-59
2023/06/05 06:42:42;;;;;;;9.27;6.03;;;;;;;;;;5095158;28;20211;-59
2023/06/05 06:45:10;;;;;;;8.02;5.60;;;;;;;;;;5094978;28;20297;-59
2023/06/05 06:47:38;;;;;;;6.93;4.70;;;;;;;;;;5086117;28;20322;-59
2023/06/05 06:50:07;;;;;;;6.68;5.10;;;;;;;;;;5095253;28;20286;-59
2023/06/05 06:52:34;;;;;;;6.93;5.00;;;;;;;;;;5098491;28;20202;-59
2023/06/05 06:55:02;;;;;;;5.53;4.60;;;;;;;;;;5098502;28;20214;-59
2023/06/05 06:57:29;;;;;;;6.32;4.35;;;;;;;;;;5098279;28;20582;-59
2023/06/05 06:59:56;;;;;;;5.93;3.50;;;;;;;;;;5097943;28;20226;-59
2023/06/05 07:02:25;;;;;;;3.67;3.33;;;;;;;;;;5090611;28;20239;-59
2023/06/05 07:04:53;;;;;;;5.55;3.28;;;;;;;;;;5097968;28;20200;-59
2023/06/05 07:07:22;;;;;;;4.78;3.40;;;;;;;;;;5097120;28;20219;-59
2023/06/05 07:09:51;;;;;;;4.00;3.33;;;;;;;;;;5097353;28;20213;-59
2023/06/05 07:12:22;;;;;;;4.05;3.08;;;;;;;;;;5097788;28;20515;-59
2023/06/05 07:14:50;;;;;;;4.40;3.58;;;;;;;;;;5090012;28;20207;-59
2023/06/05 07:17:17;;;;;;;4.55;3.35;;;;;;;;;;5098010;28;20215;-59
2023/06/05 07:19:44;;;;;;;4.30;3.10;;;;;;;;;;5098178;28;20204;-59
2023/06/05 07:22:12;;;;;;;4.57;2.88;;;;;;;;;;5097601;28;20219;-59
2023/06/05 07:24:41;;;;;;;4.97;2.90;;;;;;;;;;5097792;28;20720;-59
2023/06/05 07:27:09;;;;;;;3.20;2.80;;;;;;;;;;5098427;28;20496;-59
2023/06/05 07:29:37;;;;;;;4.03;2.53;;;;;;;;;;5090054;28;20235;-59
2023/06/05 07:32:07;;;;;;;3.60;2.80;;;;;;;;;;5097528;28;20235;-59
2023/06/05 07:34:34;;;;;;;3.00;2.60;;;;;;;;;;5097697;28;20787;-59
2023/06/05 07:37:02;;;;;;;3.22;2.78;;;;;;;;;;5097919;28;20195;-59
2023/06/05 07:39:30;;;;;;;3.95;2.67;;;;;;;;;;5097581;28;20214;-59
2023/06/05 07:41:58;;;;;;;2.70;2.50;;;;;;;;;;5089301;28;20758;-59
2023/06/05 07:44:26;;;;;;;4.00;2.50;;;;;;;;;;5098026;28;20207;-59
2023/06/05 07:46:53;;;;;;;3.35;2.80;;;;;;;;;;5097163;28;20652;-59
2023/06/05 07:49:23;;;;;;;4.60;2.60;;;;;;;;;;5096881;28;20591;-59
2023/06/05 07:51:50;;;;;;;3.65;2.47;;;;;;;;;;5096965;28;20203;-59
2023/06/05 07:54:19;;;;;;;3.60;2.83;;;;;;;;;;5096884;28;20204;-59
2023/06/05 07:56:48;;;;;;;3.20;2.85;;;;;;;;;;5088772;28;20489;-59
2023/06/05 07:59:24;;;;;;;3.17;2.83;;;;;;;;;;5096417;28;20204;-60
2023/06/05 08:01:51;;;;;;;2.55;2.20;;;;;;;;;;5096315;28;20234;-60
2023/06/05 08:04:19;;;;;;;3.00;2.60;;;;;;;;;;5088083;28;20261;-60
2023/06/05 08:06:46;;;;;;;3.05;2.40;;;;;;;;;;5096091;28;20211;-60
2023/06/05 08:09:14;;;;;;;3.47;2.47;;;;;;;;;;5093266;28;20443;-60
2023/06/05 08:11:41;;;;;;;2.50;2.30;;;;;;;;;;5090866;28;20226;-60
2023/06/05 08:14:09;;;;;;;2.70;2.50;;;;;;;;;;5096577;28;20204;-60
2023/06/05 08:16:38;;;;;;;3.05;2.70;;;;;;;;;;5095818;28;20208;-60
2023/06/05 08:19:06;;;;;;;2.20;2.00;;;;;;;;;;5096397;28;20210;-60
2023/06/05 08:21:35;;;;;;;2.85;2.40;;;;;;;;;;5096670;28;20203;-60
2023/06/05 08:24:02;;;;;;;2.80;2.25;;;;;;;;;;5087906;28;20232;-60
2023/06/05 08:26:29;;;;;;;3.22;2.38;;;;;;;;;;5095627;28;20227;-60
2023/06/05 08:28:56;;;;;;;3.10;2.30;;;;;;;;;;5095938;28;20210;-60
2023/06/05 08:31:24;;;;;;;2.60;2.40;;;;;;;;;;5096348;28;20199;-60
2023/06/05 08:33:53;;;;;;;2.80;2.42;;;;;;;;;;5096251;28;20510;-60
2023/06/05 08:36:21;;;;;;;2.63;2.13;;;;;;;;;;5096212;28;20287;-60
2023/06/05 08:38:48;;;;;;;3.72;2.42;;;;;;;;;;5087042;28;20204;-60
2023/06/05 08:41:16;;;;;;;3.47;2.45;;;;;;;;;;5094493;28;20204;-60
2023/06/05 08:43:44;;;;;;;4.53;2.70;;;;;;;;;;5095256;28;20337;-60
2023/06/05 08:46:12;;;;;;;4.18;2.67;;;;;;;;;;5095915;28;20288;-60
2023/06/05 08:48:43;;;;;;;5.30;2.55;;;;;;;;;;5095192;28;20222;-60
2023/06/05 08:51:13;;;;;;;4.10;2.67;;;;;;;;;;5092561;28;20737;-60
2023/06/05 08:53:41;;;;;;;2.92;2.47;;;;;;;;;;5090302;28;20195;-60
2023/06/05 08:56:08;;;;;;;3.38;2.70;;;;;;;;;;5095464;28;20214;-60
2023/06/05 08:58:36;;;;;;;2.55;2.20;;;;;;;;;;5095515;28;20235;-60
2023/06/05 09:01:04;;;;;;;3.63;2.28;;;;;;;;;;5094746;28;20203;-60
2023/06/05 09:03:31;;;;;;;2.63;2.42;;;;;;;;;;5094967;28;20204;-60
2023/06/05 09:05:58;;;;;;;2.92;2.40;;;;;;;;;;5086202;28;20211;-60
2023/06/05 09:08:32;;;;;;;2.88;2.40;;;;;;;;;;5095518;28;20664;-60
2023/06/05 09:11:14;;;;;;;2.72;2.53;;;;;;;;;;5095678;28;20203;-60
2023/06/05 09:13:46;;;;;;;2.88;2.30;;;;;;;;;;5093919;28;20211;-60
2023/06/05 09:16:13;;;;;;;3.35;2.70;;;;;;;;;;5095634;28;20399;-60
2023/06/05 09:18:53;;;;;;;3.15;2.55;;;;;;;;;;5095714;28;20200;-60
2023/06/05 09:21:20;;;;;;;2.88;2.67;;;;;;;;;;5095691;28;20199;-60
2023/06/05 09:23:49;;;;;;;2.88;2.60;;;;;;;;;;5095726;28;20214;-60
2023/06/05 09:26:17;;;;;;;2.40;2.20;;;;;;;;;;5094515;28;20304;-60
2023/06/05 09:28:57;;;;;;;2.65;2.45;;;;;;;;;;5095203;28;20235;-60
2023/06/05 09:31:26;;;;;;;2.70;2.50;;;;;;;;;;5094275;28;20199;-60
2023/06/05 09:33:57;;;;;;;3.03;2.67;;;;;;;;;;5087048;28;20579;-60
2023/06/05 09:36:27;;;;;;;3.60;2.60;;;;;;;;;;5093842;28;20210;-60
2023/06/05 09:38:55;;;;;;;3.30;2.95;;;;;;;;;;5093929;28;20199;-60
2023/06/05 09:41:23;;;;;;;3.15;2.88;;;;;;;;;;5094289;28;20204;-60
2023/06/05 09:43:50;;;;;;;2.92;2.58;;;;;;;;;;5093469;28;20257;-60
2023/06/05 09:46:18;;;;;;;2.85;2.40;;;;;;;;;;5090521;28;20201;-60
2023/06/05 09:48:51;;;;;;;2.97;2.70;;;;;;;;;;5089688;28;20223;-60
2023/06/05 09:51:19;;;;;;;2.83;2.60;;;;;;;;;;5095151;28;20210;-60
2023/06/05 09:53:47;;;;;;;2.95;2.70;;;;;;;;;;5093984;28;20597;-60
2023/06/05 09:56:16;;;;;;;3.13;2.83;;;;;;;;;;5094767;28;20203;-60
2023/06/05 09:58:46;;;;;;;3.10;2.80;;;;;;;;;;5094659;28;20222;-60
2023/06/05 10:01:14;;;;;;;3.03;2.80;;;;;;;;;;5084485;28;20235;-60
2023/06/05 10:03:44;;;;;;;4.72;2.85;;;;;;;;;;5074181;28;20211;-60
2023/06/05 10:06:11;;;;;;;2.92;2.72;;;;;;;;;;5074282;28;20211;-60
2023/06/05 10:08:39;;;;;;;2.90;2.70;;;;;;;;;;5073197;28;20231;-60
2023/06/05 10:11:08;;;;;;;2.83;2.60;;;;;;;;;;5073570;28;20204;-60
2023/06/05 10:13:36;;;;;;;3.67;2.70;;;;;;;;;;5074432;28;20204;-60
2023/06/05 10:16:04;;;;;;;3.10;2.80;;;;;;;;;;5074164;28;20204;-60
2023/06/05 10:18:32;;;;;;;3.58;2.70;;;;;;;;;;5074358;28;20204;-60
2023/06/05 10:21:00;;;;;;;2.95;2.75;;;;;;;;;;5074220;28;20231;-60
2023/06/05 10:23:27;;;;;;;3.03;2.75;;;;;;;;;;5073851;28;20496;-60
2023/06/05 10:25:55;;;;;;;3.20;2.90;;;;;;;;;;5076024;28;20204;-60
2023/06/05 10:28:32;;;;;;;2.95;2.65;;;;;;;;;;5077460;28;20224;-60
2023/06/05 10:31:22;;;;;;;3.10;2.80;;;;;;;;;;5076698;28;20230;-60
2023/06/05 10:34:10;;;;;;;3.20;2.90;;;;;;;;;;5077091;28;20350;-60
2023/06/05 10:36:57;;;;;;;2.92;2.63;;;;;;;;;;5070730;28;20481;-60
2023/06/05 10:39:26;;;;;;;3.28;2.80;;;;;;;;;;5076549;28;20215;-60
2023/06/05 10:41:53;;;;;;;3.58;3.08;;;;;;;;;;5076013;28;20205;-60
2023/06/05 10:44:39;;;;;;;3.10;2.83;;;;;;;;;;5077402;28;20204;-60
2023/06/05 10:47:21;;;;;;;3.70;3.35;;;;;;;;;;5077024;28;20618;-60
2023/06/05 10:50:14;;;;;;;3.63;3.33;;;;;;;;;;5076408;28;20219;-60
2023/06/05 10:52:42;;;;;;;3.72;2.90;;;;;;;;;;5077939;28;20230;-60
2023/06/05 10:55:12;;;;;;;3.33;3.03;;;;;;;;;;5077428;28;20208;-60
2023/06/05 10:57:58;;;;;;;3.45;3.05;;;;;;;;;;5076404;28;20200;-60
2023/06/05 11:00:25;;;;;;;4.00;3.05;;;;;;;;;;5076270;28;20247;-60
2023/06/05 11:02:53;;;;;;;3.97;3.10;;;;;;;;;;5084562;28;20236;-60
2023/06/05 11:05:20;;;;;;;3.85;3.00;;;;;;;;;;5095693;28;20204;-60
2023/06/05 11:07:48;;;;;;;3.53;3.22;;;;;;;;;;5097405;28;20276;-60
2023/06/05 11:10:20;;;;;;;3.35;2.92;;;;;;;;;;5088810;28;20210;-60
2023/06/05 11:12:57;;;;;;;3.25;3.05;;;;;;;;;;5096920;28;20215;-60
2023/06/05 11:15:38;;;;;;;3.47;3.17;;;;;;;;;;5096982;28;20210;-60
2023/06/05 11:18:24;;;;;;;3.72;3.42;;;;;;;;;;5096679;28;20478;-60
2023/06/05 11:20:51;;;;;;;3.50;3.20;;;;;;;;;;5097512;28;20207;-60
2023/06/05 11:23:20;;;;;;;3.67;3.38;;;;;;;;;;5088659;28;20246;-60
2023/06/05 11:25:50;;;;;;;3.97;3.33;;;;;;;;;;5095970;28;20203;-60
2023/06/05 11:28:39;;;;;;;3.58;3.22;;;;;;;;;;5096064;28;20235;-60
2023/06/05 11:31:06;;;;;;;3.47;3.17;;;;;;;;;;5096420;28;20302;-60
2023/06/05 11:33:34;;;;;;;4.15;3.80;;;;;;;;;;5095930;28;20493;-60
2023/06/05 11:36:02;;;;;;;4.65;3.42;;;;;;;;;;5094141;28;20302;-60
2023/06/05 11:38:30;;;;;;;3.70;3.40;;;;;;;;;;5089645;28;20306;-60
2023/06/05 11:40:58;;;;;;;3.90;3.50;;;;;;;;;;5094328;28;20206;-60
2023/06/05 11:43:26;;;;;;;4.65;4.10;;;;;;;;;;5096484;28;20587;-60
2023/06/05 11:45:54;;;;;;;4.13;3.72;;;;;;;;;;5095727;28;20195;-60
2023/06/05 11:48:22;;;;;;;4.68;3.78;;;;;;;;;;5095056;28;20223;-60
2023/06/05 11:50:57;;;;;;;4.30;3.67;;;;;;;;;;5087665;28;20207;-60
2023/06/05 11:53:24;;;;;;;4.55;4.13;;;;;;;;;;5095666;28;20749;-60
2023/06/05 11:56:06;;;;;;;4.60;4.10;;;;;;;;;;5095568;28;20204;-60
2023/06/05 11:58:36;;;;;;;4.97;3.95;;;;;;;;;;5094473;28;20273;-60
2023/06/05 12:01:09;;;;;;;4.70;4.03;;;;;;;;;;5095446;28;20315;-60
2023/06/05 12:03:39;;;;;;;4.55;4.20;;;;;;;;;;5086518;28;20484;-60
2023/06/05 12:06:06;;;;;;;4.70;4.20;;;;;;;;;;5095037;28;20199;-60
2023/06/05 12:08:35;;;;;;;5.05;4.55;;;;;;;;;;5095447;28;20224;-60
2023/06/05 12:11:05;;;;;;;4.40;4.00;;;;;;;;;;5095449;28;20213;-60
2023/06/05 12:13:50;;;;;;;4.88;4.35;;;;;;;;;;5093926;28;20578;-60
2023/06/05 12:16:18;;;;;;;5.28;4.78;;;;;;;;;;5087053;28;20199;-60
2023/06/05 12:18:45;;;;;;;4.47;4.05;;;;;;;;;;5095082;28;20695;-60
2023/06/05 12:21:22;;;;;;;5.18;4.68;;;;;;;;;;5094995;28;20204;-60
2023/06/05 12:23:50;;;;;;;5.30;4.60;;;;;;;;;;5095114;28;20756;-60
2023/06/05 12:26:18;;;;;;;5.28;4.80;;;;;;;;;;5094893;28;20196;-60
2023/06/05 12:28:46;;;;;;;5.05;4.55;;;;;;;;;;5087621;28;20220;-60
2023/06/05 12:31:29;;;;;;;5.00;4.60;;;;;;;;;;5053892;28;20209;-60
2023/06/05 12:33:58;;;;;;;5.40;4.90;;;;;;;;;;5054306;28;20205;-60
2023/06/05 12:36:25;;;;;;;5.03;4.63;;;;;;;;;;5054787;28;20602;-60
2023/06/05 12:38:53;;;;;;;5.40;4.90;;;;;;;;;;5054208;28;20616;-61
2023/06/05 12:41:20;;;;;;;5.68;4.40;;;;;;;;;;5054175;28;20552;-61
2023/06/05 12:43:59;;;;;;;5.05;4.55;;;;;;;;;;5054065;28;20573;-61
2023/06/05 12:46:27;;;;;;;5.30;4.78;;;;;;;;;;5054602;28;20213;-61
2023/06/05 12:48:55;;;;;;;5.63;4.68;;;;;;;;;;5053047;28;20613;-60
2023/06/05 12:51:24;;;;;;;5.15;4.60;;;;;;;;;;5054841;28;20205;-60
2023/06/05 12:53:51;;;;;;;5.38;4.80;;;;;;;;;;5054372;28;20212;-60
2023/06/05 12:56:18;;;;;;;5.13;4.70;;;;;;;;;;5053593;28;20601;-60
2023/06/05 12:58:46;;;;;;;5.20;4.78;;;;;;;;;;5054952;28;20240;-58
2023/06/05 13:01:13;;;;;;;5.00;4.60;;;;;;;;;;5052889;28;20209;-58
2023/06/05 13:03:41;;;;;;;5.30;4.90;;;;;;;;;;5049546;28;20496;-58
2023/06/05 13:06:09;;;;;;;5.40;4.90;;;;;;;;;;5054878;28;20197;-58
2023/06/05 13:08:38;;;;;;;5.18;4.78;;;;;;;;;;5053573;28;20231;-58
2023/06/05 13:11:05;;;;;;;4.82;4.40;;;;;;;;;;5054624;28;20227;-58
2023/06/05 13:13:32;;;;;;;5.28;4.82;;;;;;;;;;5054179;28;20196;-58
2023/06/05 13:16:00;;;;;;;4.78;4.38;;;;;;;;;;5053976;28;20205;-58
2023/06/05 13:18:29;;;;;;;5.05;4.65;;;;;;;;;;5052930;28;20201;-58
2023/06/05 13:20:56;;;;;;;7.40;4.82;;;;;;;;;;5053757;28;20225;-58
2023/06/05 13:23:24;;;;;;;4.80;4.47;;;;;;;;;;5054030;28;20208;-58
2023/06/05 13:25:52;;;;;;;5.47;4.97;;;;;;;;;;5054387;28;20205;-58
2023/06/05 13:28:20;;;;;;;5.38;4.90;;;;;;;;;;5046264;28;20228;-58
2023/06/05 13:30:47;;;;;;;5.40;4.90;;;;;;;;;;5053714;28;20209;-58
2023/06/05 13:33:15;;;;;;;5.32;4.82;;;;;;;;;;5054123;28;20243;-58
2023/06/05 13:35:42;;;;;;;5.43;4.90;;;;;;;;;;5053868;28;20204;-58
2023/06/05 13:38:10;;;;;;;5.40;4.90;;;;;;;;;;5054816;28;20208;-58
2023/06/05 13:40:37;;;;;;;5.72;5.22;;;;;;;;;;5054638;28;20204;-58
2023/06/05 13:43:06;;;;;;;4.68;4.32;;;;;;;;;;5053231;28;20215;-58
2023/06/05 13:45:33;;;;;;;5.22;4.82;;;;;;;;;;5053796;28;20215;-58
2023/06/05 13:48:01;;;;;;;6.07;4.70;;;;;;;;;;5053622;28;20205;-58
2023/06/05 13:50:28;;;;;;;4.70;4.30;;;;;;;;;;5053556;28;20611;-58
2023/06/05 13:52:55;;;;;;;5.75;4.95;;;;;;;;;;5053468;28;20205;-58
2023/06/05 13:55:22;;;;;;;5.30;4.90;;;;;;;;;;5054153;28;20215;-58
2023/06/05 13:57:50;;;;;;;5.53;4.70;;;;;;;;;;5052715;28;20205;-58
2023/06/05 14:00:19;;;;;;;4.88;4.47;;;;;;;;;;5056006;28;20608;-58
2023/06/05 14:02:47;;;;;;;5.10;4.70;;;;;;;;;;5070715;28;20286;-58
2023/06/05 14:05:14;;;;;;;5.18;4.78;;;;;;;;;;5077791;28;20231;-58
2023/06/05 14:07:42;;;;;;;5.25;4.85;;;;;;;;;;5076667;28;20203;-58
2023/06/05 14:10:09;;;;;;;5.20;4.72;;;;;;;;;;5077483;28;20224;-58
2023/06/05 14:12:37;;;;;;;4.85;4.45;;;;;;;;;;5077166;28;20652;-58
2023/06/05 14:15:05;;;;;;;4.78;4.38;;;;;;;;;;5077555;28;20212;-58
2023/06/05 14:17:33;;;;;;;5.38;4.88;;;;;;;;;;5077044;28;20219;-58
2023/06/05 14:20:03;;;;;;;5.10;4.53;;;;;;;;;;5076553;28;20796;-58
2023/06/05 14:22:31;;;;;;;5.45;4.95;;;;;;;;;;5076973;28;20212;-58
2023/06/05 14:24:58;;;;;;;5.32;4.82;;;;;;;;;;5076855;28;20584;-59
2023/06/05 14:27:25;;;;;;;5.88;5.38;;;;;;;;;;5076369;28;20212;-58
2023/06/05 14:29:53;;;;;;;4.68;4.28;;;;;;;;;;5076106;28;20234;-58
2023/06/05 14:32:20;;;;;;;5.25;4.72;;;;;;;;;;5076950;28;20589;-58
2023/06/05 14:34:49;;;;;;;5.03;4.60;;;;;;;;;;5076687;28;20209;-58
2023/06/05 14:37:16;;;;;;;5.35;4.95;;;;;;;;;;5076635;28;20204;-58
2023/06/05 14:39:44;;;;;;;5.93;4.55;;;;;;;;;;5076344;28;20223;-58
2023/06/05 14:42:11;;;;;;;5.40;4.90;;;;;;;;;;5077159;28;20205;-59
2023/06/05 14:44:39;;;;;;;5.20;4.80;;;;;;;;;;5076781;28;20216;-59
2023/06/05 14:47:07;;;;;;;4.88;4.50;;;;;;;;;;5076414;28;20292;-60
2023/06/05 14:49:34;;;;;;;4.97;4.47;;;;;;;;;;5075920;28;20227;-60
2023/06/05 14:52:05;;;;;;;5.50;4.88;;;;;;;;;;5077394;28;20219;-60
2023/06/05 14:54:32;;;;;;;4.82;4.43;;;;;;;;;;5076671;28;20204;-60